^^
Station Historical Data
Daily Summary for January 3, 2017 Units:  Metric    English   Both
« Previous Day
Next Day »
Daily Weekly Monthly Yearly Custom
  High: Low: Average:
Temperature: 31.8 °C 18.4 °C 23.1 °C
Dew Point: 16.8 °C 6.6 °C 14.2 °C
Humidity: 87% 21% 64%
Wind Speed: 32km/h 7.9km/h 16.3km/h
Wind Gust: 37km/h - -
Wind- - South
Pressure: 1010.7 hPa 1007.3 hPa -
Precipitation: 0 mm    
Historical Graphs
 
 
Tabular Data for January 3, 2017
Time Temperature Dew Point Pressure Wind Wind Speed Wind Gust Humidity Rainfall Rate (Hourly) solar Conditions
03:46 19.6 °C 16.6 °C 1009 hPa SSW 16.3 km/h 17.7 km/h 83% 0 mm 0.0 W/m2
03:52 19.5 °C 16.5 °C 1009 hPa SSW 13 km/h 19.3 km/h 83% 0 mm 0.0 W/m2
03:57 19.3 °C 16.5 °C 1009 hPa SSW 17.7 km/h 19.3 km/h 84% 0 mm 0.0 W/m2
04:02 19.2 °C 16.4 °C 1009 hPa SSW 9.7 km/h 17.7 km/h 84% 0 mm 0.0 W/m2
04:07 19.1 °C 16.5 °C 1009 hPa SSW 14.3 km/h 20.9 km/h 85% 0 mm 0.0 W/m2
04:12 19.1 °C 16.5 °C 1009 hPa SSW 16.3 km/h 19.3 km/h 85% 0 mm 0.0 W/m2
04:17 19 °C 16.4 °C 1009 hPa SSW 13 km/h 19.3 km/h 85% 0 mm 0.0 W/m2
04:22 18.9 °C 16.3 °C 1009 hPa SSW 14.3 km/h 20.9 km/h 85% 0 mm 0.0 W/m2
04:27 18.8 °C 16.2 °C 1009 hPa SSW 14.3 km/h 22.5 km/h 85% 0 mm 0.0 W/m2
04:32 18.8 °C 16.2 °C 1009 hPa SSW 17.7 km/h 20.9 km/h 85% 0 mm 0.0 W/m2
04:42 18.8 °C 16.4 °C 1009.4 hPa SSW 16.3 km/h 20.9 km/h 86% 0 mm 0.0 W/m2
04:47 18.7 °C 16.3 °C 1009.4 hPa SSW 11.1 km/h 17.7 km/h 86% 0 mm 0.0 W/m2
04:57 18.8 °C 16.4 °C 1009.4 hPa SSW 13 km/h 17.7 km/h 86% 0 mm 0.0 W/m2
05:02 18.7 °C 16.1 °C 1009 hPa SSW 16.3 km/h 19.3 km/h 85% 0 mm 0.0 W/m2
05:07 18.7 °C 16.3 °C 1009 hPa SSW 16.3 km/h 20.9 km/h 86% 0 mm 0.0 W/m2
05:12 18.6 °C 16.2 °C 1009 hPa SSW 16.3 km/h 19.3 km/h 86% 0 mm 0.0 W/m2
05:17 18.7 °C 16.3 °C 1009 hPa SSW 13 km/h 19.3 km/h 86% 0 mm 0.0 W/m2
05:22 18.7 °C 16.3 °C 1009.4 hPa SSW 13 km/h 19.3 km/h 86% 0 mm 0.0 W/m2
05:27 18.7 °C 16.1 °C 1009.4 hPa SSW 17.7 km/h 20.9 km/h 85% 0 mm 0.0 W/m2
05:32 18.6 °C 16.2 °C 1009.4 hPa SSW 13 km/h 22.5 km/h 86% 0 mm 0.0 W/m2
05:42 18.5 °C 16.1 °C 1009.4 hPa SSW 11.1 km/h 16.1 km/h 86% 0 mm 0.0 W/m2
05:47 18.4 °C 16 °C 1009.4 hPa SSW 13 km/h 16.1 km/h 86% 0 mm 0.0 W/m2
05:52 18.4 °C 16.2 °C 1009.4 hPa SSW 7.9 km/h 11.3 km/h 87% 0 mm 0.0 W/m2
05:58 18.4 °C 16.2 °C 1009.7 hPa SSW 14.3 km/h 14.5 km/h 87% 0 mm 0.0 W/m2
06:03 18.4 °C 16.2 °C 1009.7 hPa SSW 11.1 km/h 16.1 km/h 87% 0 mm 5.0 W/m2
06:13 18.4 °C 16.2 °C 1009.7 hPa SSW 13 km/h 16.1 km/h 87% 0 mm 18.0 W/m2
06:18 18.4 °C 16 °C 1009.7 hPa SSW 16.3 km/h 17.7 km/h 86% 0 mm 23.0 W/m2
06:23 18.4 °C 16 °C 1009.7 hPa SSW 13 km/h 16.1 km/h 86% 0 mm 30.0 W/m2
06:28 18.6 °C 16.2 °C 1009.7 hPa SSW 11.1 km/h 12.9 km/h 86% 0 mm 39.0 W/m2
06:33 18.6 °C 16.2 °C 1009.7 hPa SSW 13 km/h 14.5 km/h 86% 0 mm 44.0 W/m2
06:38 18.6 °C 16.2 °C 1009.7 hPa SSW 9.7 km/h 12.9 km/h 86% 0 mm 51.0 W/m2
06:43 18.5 °C 16.1 °C 1010 hPa SSW 9.7 km/h 12.9 km/h 86% 0 mm 67.0 W/m2
06:48 18.4 °C 15.8 °C 1010 hPa SSW 11.1 km/h 16.1 km/h 85% 0 mm 81.0 W/m2
06:52 18.5 °C 16.1 °C 1010 hPa SSW 11.1 km/h 14.5 km/h 86% 0 mm 97.0 W/m2
06:59 18.6 °C 16.2 °C 1010 hPa SSW 13 km/h 16.1 km/h 86% 0 mm 116.0 W/m2
07:11 18.8 °C 16 °C 1010 hPa SSW 14.3 km/h 16.1 km/h 84% 0 mm 153.0 W/m2
07:23 18.8 °C 16 °C 1010 hPa SSW 13 km/h 16.1 km/h 84% 0 mm 90.0 W/m2
07:32 19.1 °C 16.3 °C 1010.4 hPa SSW 9.7 km/h 12.9 km/h 84% 0 mm 269.0 W/m2
07:37 19.4 °C 16.4 °C 1010.4 hPa SSW 13 km/h 17.7 km/h 83% 0 mm 267.0 W/m2
07:58 19.6 °C 16.4 °C 1010.4 hPa SSW 13 km/h 14.5 km/h 82% 0 mm 316.0 W/m2
08:12 19.8 °C 16.4 °C 1010.4 hPa SSW 13 km/h 16.1 km/h 81% 0 mm 376.0 W/m2
08:20 20.2 °C 16.6 °C 1010.4 hPa SSW 13 km/h 19.3 km/h 80% 0 mm 513.0 W/m2
08:25 20.3 °C 16.7 °C 1010.7 hPa SSW 19.5 km/h 20.9 km/h 80% 0 mm 575.0 W/m2
08:31 20.4 °C 16.8 °C 1010.7 hPa SSW 13 km/h 19.3 km/h 80% 0 mm 439.0 W/m2
08:36 20.5 °C 16.7 °C 1010.7 hPa SSW 17.7 km/h 22.5 km/h 79% 0 mm 246.0 W/m2
08:44 20.3 °C 16.7 °C 1010.7 hPa SSW 14.3 km/h 17.7 km/h 80% 0 mm 255.0 W/m2
11:05 25.2 °C 15.8 °C 1010 hPa SSW 17.7 km/h 20.9 km/h 56% 0 mm 889.0 W/m2
11:09 25.4 °C 15.4 °C 1010.4 hPa SSW 14.3 km/h 24.1 km/h 54% 0 mm 893.0 W/m2
11:14 25.5 °C 15.8 °C 1010.4 hPa SSW 13 km/h 22.5 km/h 55% 0 mm 904.0 W/m2
11:21 25.5 °C 15.5 °C 1010.4 hPa SSW 13 km/h 20.9 km/h 54% 0 mm 914.0 W/m2
11:24 25.6 °C 15.3 °C 1010.4 hPa SSW 14.3 km/h 19.3 km/h 53% 0 mm 925.0 W/m2
11:34 26.1 °C 14.2 °C 1010.4 hPa South 24.1 km/h 25.7 km/h 48% 0 mm 935.0 W/m2
11:49 26.4 °C 14.2 °C 1010.4 hPa SSW 19.5 km/h 20.9 km/h 47% 0 mm 954.0 W/m2
11:59 26.5 °C 13.6 °C 1010.4 hPa South 14.3 km/h 27.4 km/h 45% 0 mm 963.0 W/m2
12:09 26.9 °C 14.3 °C 1010.4 hPa SSW 16.3 km/h 24.1 km/h 46% 0 mm 972.0 W/m2
12:32 27.5 °C 13.8 °C 1010 hPa SSW 9.7 km/h 22.5 km/h 43% 0 mm 986.0 W/m2
12:45 28 °C 11.5 °C 1010 hPa South 14.3 km/h 17.7 km/h 36% 0 mm 997.0 W/m2
12:49 28.8 °C 10.9 °C 1010 hPa South 9.7 km/h 22.5 km/h 33% 0 mm 998.0 W/m2
13:04 28.8 °C 11.8 °C 1010 hPa SSE 9.7 km/h 20.9 km/h 35% 0 mm 997.0 W/m2
13:23 29.1 °C 12.5 °C 1009.7 hPa South 22.7 km/h 29 km/h 36% 0 mm 991.0 W/m2
13:31 29.1 °C 12.9 °C 1009.7 hPa SSE 25.9 km/h 33.8 km/h 37% 0 mm 986.0 W/m2
13:37 29.2 °C 12.2 °C 1009.7 hPa SE 16.3 km/h 27.4 km/h 35% 0 mm 984.0 W/m2
13:46 29.4 °C 12.3 °C 1009.4 hPa SSE 16.3 km/h 20.9 km/h 35% 0 mm 970.0 W/m2
17:25 31.7 °C 6.7 °C 1007.3 hPa SSE 24.1 km/h 25.7 km/h 21% 0 mm 441.0 W/m2
17:46 31.6 °C 6.6 °C 1007.3 hPa SE 32 km/h 35.4 km/h 21% 0 mm 387.0 W/m2
17:55 31.8 °C 7.5 °C 1007.3 hPa SE 25.9 km/h 29 km/h 22% 0 mm 336.0 W/m2
18:10 31.7 °C 8 °C 1007.3 hPa SSE 30.6 km/h 37 km/h 23% 0 mm 281.0 W/m2
18:18 31.6 °C 7.3 °C 1007.3 hPa SSE 22.7 km/h 29 km/h 22% 0 mm 258.0 W/m2
18:20 31.4 °C 7.8 °C 1007.3 hPa SE 22.7 km/h 29 km/h 23% 0 mm 243.0 W/m2
18:37 31.4 °C 8.4 °C 1007.3 hPa SE 16.3 km/h 25.7 km/h 24% 0 mm 200.0 W/m2
18:52 31.2 °C 8.8 °C 1007.3 hPa SE 27.4 km/h 30.6 km/h 25% 0 mm 127.0 W/m2
19:22 30.7 °C 10.1 °C 1007.7 hPa SSE 25.9 km/h 32.2 km/h 28% 0 mm 19.0 W/m2
19:38 30.3 °C 10.8 °C 1007.7 hPa SSE 24.1 km/h 30.6 km/h 30% 0 mm 12.0 W/m2
19:46 29.9 °C 10.9 °C 1007.7 hPa SSE 27.4 km/h 29 km/h 31% 0 mm 5.0 W/m2
20:09 29.8 °C 10.9 °C 1007.7 hPa SSE 24.1 km/h 27.4 km/h 31% 0 mm 0.0 W/m2
20:30 29.6 °C 11.6 °C 1008 hPa SSE 25.9 km/h 29 km/h 33% 0 mm 0.0 W/m2
20:41 27.6 °C 10.3 °C 1008.4 hPa SSW 16.3 km/h 24.1 km/h 34% 0 mm 0.0 W/m2
20:51 27.6 °C 10.3 °C 1008.4 hPa SSW 16.3 km/h 24.1 km/h 34% 0 mm 0.0 W/m2
21:09 27.3 °C 10.1 °C 1008.4 hPa SSW 19.5 km/h 25.7 km/h 34% 0 mm 0.0 W/m2
21:21 26.8 °C 10.1 °C 1008.4 hPa SSW 19.5 km/h 25.7 km/h 35% 0 mm 0.0 W/m2
21:28 26.6 °C 9.9 °C 1008.7 hPa SSW 19.5 km/h 24.1 km/h 35% 0 mm 0.0 W/m2
Canyon Roadhouse, Fishriver Canyon, Namibia
Compliments of Weather Underground - 2 mb